Time;durP1;ratioP1;P1;durP2;ratioP2;P2;SDS_P1;SDS_P2;PMS_P1;PMS_P2;Temp;Humidity;BMP_temperature;BMP_pressure;BME280_temperature;BME280_humidity;BME280_pressure;Samples;Min_cycle;Max_cycle;Signal;HPM_P1;HPM_P2
2022/07/30 00:00:50;;;;;;;6.53;2.00;;;;;;;18.43;47.96;100841.53;1755247;80;27499;-67
2022/07/30 00:03:15;;;;;;;4.87;1.90;;;;;;;18.42;47.99;100837.08;1761693;80;98657;-67
2022/07/30 00:05:41;;;;;;;7.85;1.90;;;;;;;18.40;48.04;100840.89;1763016;80;25747;-67
2022/07/30 00:08:07;;;;;;;8.38;1.60;;;;;;;18.37;48.21;100833.84;1762052;80;25795;-67
2022/07/30 00:10:33;;;;;;;4.58;1.62;;;;;;;18.35;48.30;100841.22;1765335;80;25879;-67
2022/07/30 00:12:59;;;;;;;6.12;1.60;;;;;;;18.35;48.35;100833.08;1764375;80;28120;-67
2022/07/30 00:15:26;;;;;;;3.85;1.30;;;;;;;18.33;48.32;100829.61;1759820;80;98825;-67
2022/07/30 00:17:52;;;;;;;8.23;1.92;;;;;;;18.32;48.43;100835.15;1768575;80;25761;-66
2022/07/30 00:20:18;;;;;;;5.17;1.70;;;;;;;18.26;48.46;100825.61;1761122;80;26444;-66
2022/07/30 00:22:45;;;;;;;5.58;1.57;;;;;;;18.24;48.46;100823.49;1759746;80;98713;-67
2022/07/30 00:25:11;;;;;;;2.65;1.35;;;;;;;18.22;48.54;100821.87;1766180;80;27473;-67
2022/07/30 00:27:39;;;;;;;10.65;1.30;;;;;;;18.19;48.55;100813.98;1758000;80;99351;-67
2022/07/30 00:30:06;;;;;;;6.87;1.50;;;;;;;18.14;48.60;100811.61;1766047;80;25829;-67
2022/07/30 00:32:32;;;;;;;5.03;1.77;;;;;;;18.12;48.66;100814.92;1762015;80;25875;-67
2022/07/30 00:34:58;;;;;;;4.37;1.70;;;;;;;18.10;48.73;100811.45;1765036;80;98829;-67
2022/07/30 00:37:24;;;;;;;3.42;1.40;;;;;;;18.05;48.74;100807.71;1762780;80;27405;-66
2022/07/30 00:39:50;;;;;;;8.48;1.70;;;;;;;18.02;48.83;100809.28;1764630;79;98891;-66
2022/07/30 00:42:19;;;;;;;7.30;1.80;;;;;;;18.02;48.89;100812.48;1762115;80;25853;-66
2022/07/30 00:44:43;;;;;;;11.93;1.70;;;;;;;18.00;48.95;100808.53;1766829;80;26403;-67
2022/07/30 00:47:09;;;;;;;6.37;1.32;;;;;;;17.97;48.98;100807.88;1763882;80;98836;-67
2022/07/30 00:49:35;;;;;;;3.85;1.95;;;;;;;17.96;49.02;100812.92;1762215;80;27471;-66
2022/07/30 00:52:01;;;;;;;2.70;1.22;;;;;;;17.93;49.06;100803.65;1764091;80;25839;-66
2022/07/30 00:54:26;;;;;;;7.78;1.50;;;;;;;17.91;49.05;100813.74;1761769;80;25815;-66
2022/07/30 00:56:52;;;;;;;3.75;1.27;;;;;;;17.88;49.10;100803.98;1763728;80;25752;-67
2022/07/30 00:59:18;;;;;;;6.95;1.55;;;;;;;17.83;49.21;100801.59;1761986;80;25757;-66
2022/07/30 01:01:44;;;;;;;4.58;1.50;;;;;;;17.81;49.24;100800.84;1762707;80;27434;-66
2022/07/30 01:04:10;;;;;;;3.30;2.30;;;;;;;17.79;49.30;100795.14;1762478;80;25868;-67
2022/07/30 01:06:40;;;;;;;10.20;1.70;;;;;;;17.76;49.35;100790.80;1763904;80;26381;-67
2022/07/30 01:09:07;;;;;;;8.10;2.08;;;;;;;17.73;49.39;100796.44;1761611;80;26160;-66
2022/07/30 01:11:39;;;;;;;8.30;1.77;;;;;;;17.68;49.50;100805.39;1764043;80;25787;-67
2022/07/30 01:14:07;;;;;;;4.90;1.40;;;;;;;17.65;49.61;100799.28;1762919;80;28169;-66
2022/07/30 01:16:40;;;;;;;9.55;1.45;;;;;;;17.57;49.72;100802.53;1759956;80;26424;-67
2022/07/30 01:22:30;;;;;;;9.65;1.87;;;;;;;17.51;49.89;100801.11;1763796;80;26025;-67
2022/07/30 01:25:31;;;;;;;3.25;1.57;;;;;;;17.48;49.96;100800.45;1758181;79;26375;-66
2022/07/30 01:28:10;;;;;;;6.53;1.67;;;;;;;17.43;50.08;100794.49;1759285;80;26264;-65
2022/07/30 01:30:40;;;;;;;7.12;2.02;;;;;;;17.40;50.20;100790.64;1770316;79;25775;-66
2022/07/30 01:33:11;;;;;;;11.12;1.87;;;;;;;17.36;50.25;100785.05;1769094;79;25784;-66
2022/07/30 01:35:39;;;;;;;7.50;1.87;;;;;;;17.35;50.48;100781.47;1764673;79;27873;-66
2022/07/30 01:38:06;;;;;;;9.05;1.85;;;;;;;17.33;50.47;100781.20;1767597;79;98825;-66
2022/07/30 01:40:34;;;;;;;8.18;1.95;;;;;;;17.31;50.55;100773.66;1766435;79;29455;-66
2022/07/30 01:43:02;;;;;;;3.50;1.70;;;;;;;17.28;50.64;100766.62;1766146;79;25737;-66
2022/07/30 01:45:30;;;;;;;8.68;2.00;;;;;;;17.25;50.76;100765.48;1772386;79;98585;-66
2022/07/30 01:47:59;;;;;;;5.12;1.70;;;;;;;17.26;50.84;100763.63;1774089;79;25702;-66
2022/07/30 01:50:27;;;;;;;8.95;1.70;;;;;;;17.27;50.87;100759.95;1765551;79;25770;-66
2022/07/30 01:52:56;;;;;;;3.70;1.47;;;;;;;17.27;50.91;100768.08;1770757;79;27420;-66
2022/07/30 01:55:35;;;;;;;9.38;1.85;;;;;;;17.27;50.93;100773.50;1773746;79;25769;-68
2022/07/30 01:58:05;;;;;;;5.97;1.60;;;;;;;17.27;50.98;100776.20;1766298;79;98702;-66
2022/07/30 02:00:34;;;;;;;4.37;1.65;;;;;;;17.26;51.02;100774.47;1775074;79;26433;-68
2022/07/30 02:02:59;;;;;;;3.70;1.65;;;;;;;17.25;51.09;100776.80;1771885;78;98673;-68
2022/07/30 02:05:29;;;;;;;6.20;1.47;;;;;;;17.23;51.17;100770.62;1769855;79;27880;-68
2022/07/30 02:08:06;;;;;;;8.65;1.62;;;;;;;17.20;51.34;100768.50;1775095;79;26011;-67
2022/07/30 02:10:47;;;;;;;3.85;2.05;;;;;;;17.17;51.49;100771.42;1769213;79;98455;-67
2022/07/30 02:13:24;;;;;;;2.22;1.62;;;;;;;17.17;51.54;100772.77;1768809;79;34278;-65
2022/07/30 02:16:14;;;;;;;5.30;1.72;;;;;;;17.16;51.56;100765.63;1773057;79;25781;-68
2022/07/30 02:18:55;;;;;;;7.85;1.65;;;;;;;17.17;51.58;100767.36;1766895;79;27460;-66
2022/07/30 02:21:24;;;;;;;4.28;1.55;;;;;;;17.15;51.59;100761.18;1762331;79;98924;-66
2022/07/30 02:23:54;;;;;;;5.78;2.33;;;;;;;17.13;51.65;100759.55;1766905;79;25978;-66
2022/07/30 02:26:23;;;;;;;3.60;1.47;;;;;;;17.09;51.79;100761.59;1771628;79;26586;-65
2022/07/30 02:28:53;;;;;;;10.75;1.62;;;;;;;17.08;51.84;100757.16;1770723;79;25802;-65
2022/07/30 02:31:23;;;;;;;6.87;1.62;;;;;;;17.09;51.90;100759.37;1767802;79;27366;-65
2022/07/30 02:33:54;;;;;;;5.93;2.00;;;;;;;17.07;51.97;100756.77;1774982;79;27146;-65
2022/07/30 02:36:21;;;;;;;3.77;1.70;;;;;;;17.04;52.03;100758.34;1774401;79;25735;-66
2022/07/30 02:38:49;;;;;;;11.28;2.52;;;;;;;17.04;52.01;100753.41;1769176;79;25928;-68
2022/07/30 02:41:18;;;;;;;3.52;1.92;;;;;;;17.04;52.08;100752.92;1774505;79;25835;-65
2022/07/30 02:43:47;;;;;;;8.80;1.60;;;;;;;17.03;52.07;100753.89;1772069;79;27785;-66
2022/07/30 02:46:16;;;;;;;9.00;1.55;;;;;;;17.02;52.16;100751.29;1771640;79;25712;-66
2022/07/30 02:48:46;;;;;;;2.67;1.45;;;;;;;16.99;52.23;100756.92;1776702;79;25738;-67
2022/07/30 02:51:16;;;;;;;11.50;1.75;;;;;;;16.97;52.28;100763.79;1771044;79;26562;-66
2022/07/30 02:53:45;;;;;;;5.25;1.80;;;;;;;16.96;52.35;100758.48;1775463;79;25833;-67
2022/07/30 02:56:14;;;;;;;3.58;1.82;;;;;;;16.92;52.38;100750.18;1773659;79;27461;-66
2022/07/30 02:58:45;;;;;;;3.35;1.70;;;;;;;16.89;52.53;100748.55;1774192;79;25835;-66
2022/07/30 03:01:14;;;;;;;4.47;1.57;;;;;;;16.86;52.57;100744.70;1773525;79;98749;-67
2022/07/30 03:03:43;;;;;;;5.72;1.70;;;;;;;16.87;52.76;100739.66;1774318;79;26527;-66
2022/07/30 03:06:14;;;;;;;8.83;1.65;;;;;;;16.83;52.78;100732.23;1770763;79;98824;-66
2022/07/30 03:08:43;;;;;;;2.58;1.25;;;;;;;16.84;52.86;100729.05;1772098;79;29545;-66
2022/07/30 03:11:11;;;;;;;4.05;1.92;;;;;;;16.84;52.95;100723.14;1773050;79;25943;-66
2022/07/30 03:13:38;;;;;;;7.25;1.55;;;;;;;16.82;52.99;100718.80;1768440;79;25852;-67
2022/07/30 03:16:09;;;;;;;4.28;1.45;;;;;;;16.80;53.15;100716.69;1774231;79;26232;-67
2022/07/30 03:18:37;;;;;;;3.62;1.98;;;;;;;16.77;53.26;100715.55;1769160;79;25742;-66
2022/07/30 03:21:09;;;;;;;8.23;2.10;;;;;;;16.76;53.48;100713.81;1770303;79;27464;-67
2022/07/30 03:23:36;;;;;;;1.90;1.52;;;;;;;16.77;53.46;100712.84;1773323;79;25970;-67
2022/07/30 03:26:05;;;;;;;6.35;1.50;;;;;;;16.80;53.53;100718.04;1772919;79;26371;-67
2022/07/30 03:28:33;;;;;;;10.78;1.55;;;;;;;16.79;53.49;100716.31;1771248;79;25779;-66
2022/07/30 03:31:03;;;;;;;5.22;1.60;;;;;;;16.78;53.58;100711.37;1750373;80;25893;-66
2022/07/30 03:33:31;;;;;;;3.50;1.60;;;;;;;16.80;53.56;100708.08;1750623;80;27440;-66
2022/07/30 03:35:58;;;;;;;4.45;1.55;;;;;;;16.79;53.60;100698.23;1748747;80;25750;-66
2022/07/30 03:38:25;;;;;;;10.95;2.15;;;;;;;16.81;53.60;100695.41;1747530;80;26037;-66
2022/07/30 03:40:52;;;;;;;6.15;1.90;;;;;;;16.82;53.66;100693.95;1751086;80;26587;-66
2022/07/30 03:43:18;;;;;;;6.47;1.98;;;;;;;16.81;53.68;100688.65;1746222;80;26485;-66
2022/07/30 03:45:46;;;;;;;3.55;1.80;;;;;;;16.82;53.64;100689.89;1749510;80;27381;-66
2022/07/30 03:48:13;;;;;;;1.62;1.35;;;;;;;16.82;53.65;100696.66;1744680;80;26584;-66
2022/07/30 03:50:41;;;;;;;4.85;1.70;;;;;;;16.83;53.68;100692.11;1752064;80;26448;-66
2022/07/30 03:53:10;;;;;;;5.40;1.80;;;;;;;16.84;53.73;100688.44;1753887;80;26555;-66
2022/07/30 03:55:36;;;;;;;8.18;1.67;;;;;;;16.86;53.73;100694.61;1747501;80;25749;-66
2022/07/30 03:58:03;;;;;;;5.83;1.80;;;;;;;16.87;53.72;100693.64;1746447;80;28399;-66
2022/07/30 04:00:29;;;;;;;5.20;1.90;;;;;;;16.84;53.77;100696.56;1729998;80;25918;-66
2022/07/30 04:02:55;;;;;;;7.53;1.75;;;;;;;16.85;53.85;100699.64;1723320;81;25786;-66
2022/07/30 04:05:22;;;;;;;5.95;1.67;;;;;;;16.87;53.87;100699.05;1749782;80;27781;-66
2022/07/30 04:07:48;;;;;;;6.78;1.70;;;;;;;16.90;53.87;100699.33;1747452;80;25767;-67
2022/07/30 04:10:15;;;;;;;9.13;1.90;;;;;;;16.91;53.91;100703.77;1747262;80;98782;-67
2022/07/30 04:12:41;;;;;;;7.53;1.80;;;;;;;16.94;53.92;100701.72;1747313;80;26196;-67
2022/07/30 04:15:09;;;;;;;6.83;2.42;;;;;;;16.98;53.88;100710.02;1750227;80;25884;-67
2022/07/30 04:17:40;;;;;;;3.02;1.65;;;;;;;17.01;53.91;100708.45;1746735;80;25881;-67
2022/07/30 04:20:14;;;;;;;6.25;1.92;;;;;;;17.01;53.91;100703.03;1746939;80;26642;-66
2022/07/30 04:22:42;;;;;;;7.72;2.25;;;;;;;17.02;53.95;100701.19;1743910;80;28719;-68
2022/07/30 04:25:09;;;;;;;7.15;1.80;;;;;;;17.01;53.98;100707.09;1746108;80;26317;-68
2022/07/30 04:27:36;;;;;;;5.20;2.00;;;;;;;17.02;54.03;100713.38;1748763;80;25891;-68
2022/07/30 04:30:05;;;;;;;8.03;1.87;;;;;;;17.02;54.06;100712.03;1766432;78;98720;-66
2022/07/30 04:32:32;;;;;;;5.85;1.65;;;;;;;17.06;54.10;100710.84;1791392;79;26522;-66
2022/07/30 04:34:58;;;;;;;9.33;1.62;;;;;;;17.08;54.12;100717.88;1788754;78;27418;-68
2022/07/30 04:37:26;;;;;;;3.58;1.55;;;;;;;17.07;54.13;100717.50;1789747;78;98489;-66
2022/07/30 04:39:53;;;;;;;6.67;1.50;;;;;;;17.09;54.19;100714.69;1791426;78;25768;-66
2022/07/30 04:42:21;;;;;;;3.20;1.95;;;;;;;17.10;54.18;100717.78;1789806;78;26266;-66
2022/07/30 04:44:47;;;;;;;9.65;1.80;;;;;;;17.15;54.21;100719.69;1784266;78;26728;-66
2022/07/30 04:47:13;;;;;;;10.95;1.60;;;;;;;17.17;54.16;100718.60;1783547;78;26758;-66
2022/07/30 04:49:40;;;;;;;2.85;1.77;;;;;;;17.17;54.21;100709.12;1788033;78;26005;-66
2022/07/30 04:52:08;;;;;;;3.65;1.65;;;;;;;17.22;54.24;100710.64;1783499;78;26003;-66
2022/07/30 04:54:40;;;;;;;15.45;2.47;;;;;;;17.25;54.27;100715.84;1789356;78;26473;-66
2022/07/30 04:57:10;;;;;;;4.47;1.62;;;;;;;17.27;54.29;100707.99;1789404;78;25809;-66
2022/07/30 04:59:37;;;;;;;5.47;1.50;;;;;;;17.34;54.27;100703.88;1787866;78;28502;-68
2022/07/30 05:02:06;;;;;;;7.78;2.20;;;;;;;17.42;54.24;100704.69;1785913;78;98935;-66
2022/07/30 05:04:34;;;;;;;6.58;1.50;;;;;;;17.46;54.21;100698.08;1790731;78;25724;-66
2022/07/30 05:07:04;;;;;;;5.53;1.50;;;;;;;17.51;54.25;100696.77;1785891;78;25791;-66
2022/07/30 05:09:30;;;;;;;6.03;1.87;;;;;;;17.56;54.25;100696.94;1792096;78;25753;-66
2022/07/30 05:11:58;;;;;;;9.70;1.75;;;;;;;17.62;54.19;100696.00;1791499;78;28222;-68
2022/07/30 05:14:25;;;;;;;10.72;1.95;;;;;;;17.67;54.17;100694.35;1792173;78;25910;-66
2022/07/30 05:16:53;;;;;;;7.72;1.95;;;;;;;17.67;54.17;100695.70;1790525;78;25753;-67
2022/07/30 05:19:21;;;;;;;9.90;1.98;;;;;;;17.72;54.21;100693.53;1792380;78;25903;-66
2022/07/30 05:21:47;;;;;;;8.60;1.50;;;;;;;17.76;54.15;100690.98;1786215;78;99037;-66
2022/07/30 05:24:14;;;;;;;5.42;1.85;;;;;;;17.81;54.20;100686.09;1782506;78;29529;-66
2022/07/30 05:26:40;;;;;;;6.95;2.10;;;;;;;17.84;54.14;100690.80;1789264;78;27125;-66
2022/07/30 05:29:06;;;;;;;3.60;1.65;;;;;;;17.87;54.13;100683.42;1792762;78;26348;-66
2022/07/30 05:31:32;;;;;;;4.53;1.60;;;;;;;17.91;54.10;100685.80;1754712;79;25741;-66
2022/07/30 05:33:58;;;;;;;5.83;1.98;;;;;;;17.93;54.08;100688.39;1747102;80;25749;-66
2022/07/30 05:36:24;;;;;;;4.03;1.72;;;;;;;17.91;54.16;100688.51;1753206;80;27419;-66
2022/07/30 05:38:50;;;;;;;9.10;1.82;;;;;;;17.95;54.16;100690.50;1753476;80;25965;-66
2022/07/30 05:41:16;;;;;;;5.62;1.82;;;;;;;18.01;54.17;100685.98;1754541;80;26543;-67
2022/07/30 05:43:42;;;;;;;5.87;1.77;;;;;;;18.06;54.14;100690.58;1753851;80;26016;-67
2022/07/30 05:46:08;;;;;;;5.05;1.65;;;;;;;18.12;54.10;100696.91;1749390;80;25769;-66
2022/07/30 05:48:35;;;;;;;11.38;1.80;;;;;;;18.17;54.07;100694.73;1753377;80;27383;-68
2022/07/30 05:51:02;;;;;;;4.87;2.22;;;;;;;18.21;54.05;100696.20;1752491;80;25754;-68
2022/07/30 05:53:29;;;;;;;9.10;2.83;;;;;;;18.23;54.01;100698.30;1749315;80;25493;-67
2022/07/30 05:55:55;;;;;;;8.83;1.95;;;;;;;18.27;54.02;100701.66;1748935;80;27866;-66
2022/07/30 05:58:21;;;;;;;3.30;2.05;;;;;;;18.31;54.02;100697.25;1747954;80;25701;-67
2022/07/30 06:00:48;;;;;;;4.30;1.70;;;;;;;18.38;54.03;100705.30;1757054;80;27520;-67
2022/07/30 06:03:14;;;;;;;6.72;2.35;;;;;;;18.40;53.98;100703.34;1723657;81;26236;-67
2022/07/30 06:05:40;;;;;;;2.55;1.65;;;;;;;18.46;54.00;100704.73;1746568;79;98838;-67
2022/07/30 06:08:06;;;;;;;3.83;2.47;;;;;;;18.55;53.99;100708.11;1756970;80;25730;-67
2022/07/30 06:10:34;;;;;;;1.85;1.40;;;;;;;18.59;53.92;100696.53;1749288;80;25706;-67
2022/07/30 06:12:59;;;;;;;6.28;1.40;;;;;;;18.64;53.91;100701.15;1748297;80;98626;-67
2022/07/30 06:15:26;;;;;;;7.03;1.85;;;;;;;18.70;53.86;100701.55;1751745;80;25730;-67
2022/07/30 06:17:52;;;;;;;9.75;1.45;;;;;;;18.72;53.82;100705.50;1750250;80;98635;-67
2022/07/30 06:20:20;;;;;;;4.37;1.42;;;;;;;18.76;53.89;100703.80;1751762;80;26067;-68
2022/07/30 06:22:46;;;;;;;4.80;1.87;;;;;;;18.82;53.82;100706.53;1755667;80;25574;-67
2022/07/30 06:25:12;;;;;;;8.13;1.60;;;;;;;18.88;53.81;100706.06;1752481;80;98626;-67
2022/07/30 06:27:38;;;;;;;4.85;1.92;;;;;;;18.95;53.77;100708.68;1752233;80;25565;-67
2022/07/30 06:30:07;;;;;;;2.83;1.42;;;;;;;19.01;53.75;100698.70;1759785;79;25705;-67
2022/07/30 06:32:34;;;;;;;5.58;2.02;;;;;;;19.05;53.66;100707.48;1790925;78;26340;-67
2022/07/30 06:35:01;;;;;;;3.75;1.90;;;;;;;19.10;53.69;100707.49;1761387;79;25950;-68
2022/07/30 06:37:27;;;;;;;8.60;2.80;;;;;;;19.13;53.62;100700.95;1737474;79;27450;-67
2022/07/30 06:39:53;;;;;;;8.78;1.90;;;;;;;19.16;53.59;100703.92;1755454;79;25947;-67
2022/07/30 06:42:20;;;;;;;4.55;2.33;;;;;;;19.18;53.64;100706.89;1758371;79;26360;-67
2022/07/30 06:44:46;;;;;;;5.33;1.77;;;;;;;19.28;53.63;100692.09;1756433;79;98497;-66
2022/07/30 06:47:12;;;;;;;3.52;2.15;;;;;;;19.39;53.50;100694.83;1764403;79;25856;-66
2022/07/30 06:49:38;;;;;;;6.50;1.87;;;;;;;19.39;53.45;100696.19;1759530;79;98703;-66
2022/07/30 06:52:05;;;;;;;9.53;2.25;;;;;;;19.45;53.51;100700.64;1761036;79;26341;-67
2022/07/30 06:54:31;;;;;;;5.53;1.90;;;;;;;19.49;53.41;100699.04;1754432;79;98954;-66
2022/07/30 06:56:57;;;;;;;3.33;1.92;;;;;;;19.59;53.46;100700.94;1757455;79;26341;-65
2022/07/30 06:59:23;;;;;;;4.25;1.85;;;;;;;19.65;53.27;100702.30;1759311;79;25724;-66
2022/07/30 07:01:49;;;;;;;5.03;1.82;;;;;;;19.61;53.15;100699.45;1757817;79;27496;-66
2022/07/30 07:04:15;;;;;;;5.20;1.62;;;;;;;19.62;53.20;100704.77;1758316;79;26094;-66
2022/07/30 07:06:41;;;;;;;7.33;2.15;;;;;;;19.71;53.25;100705.89;1732741;81;25757;-66
2022/07/30 07:09:08;;;;;;;7.55;1.75;;;;;;;19.81;53.18;100706.88;1754215;79;26551;-66
2022/07/30 07:11:34;;;;;;;2.90;1.65;;;;;;;19.92;53.09;100707.37;1757454;79;26142;-65
2022/07/30 07:14:00;;;;;;;4.12;1.95;;;;;;;20.00;53.04;100700.80;1753773;79;99017;-65
2022/07/30 07:16:26;;;;;;;6.83;1.92;;;;;;;20.04;52.79;100695.48;1759338;79;26297;-68
2022/07/30 07:18:53;;;;;;;6.55;2.10;;;;;;;20.03;52.76;100700.55;1753225;79;25826;-65
2022/07/30 07:21:20;;;;;;;10.55;2.50;;;;;;;20.04;52.77;100703.64;1753482;79;26989;-66
2022/07/30 07:23:49;;;;;;;3.10;1.70;;;;;;;20.15;52.78;100695.47;1763815;79;25788;-68
2022/07/30 07:26:16;;;;;;;3.52;2.12;;;;;;;20.29;52.68;100691.10;1755532;79;29522;-65
2022/07/30 07:28:42;;;;;;;2.80;2.15;;;;;;;20.37;52.55;100693.19;1756426;79;98433;-66
2022/07/30 07:31:10;;;;;;;2.70;2.10;;;;;;;20.46;52.47;100687.50;1755553;79;25782;-65
2022/07/30 07:33:38;;;;;;;4.62;2.10;;;;;;;20.53;52.39;100691.44;1754346;79;98841;-65
2022/07/30 07:36:04;;;;;;;10.50;1.60;;;;;;;20.58;52.20;100691.42;1754360;79;25312;-65
2022/07/30 07:38:31;;;;;;;7.08;2.15;;;;;;;20.53;52.04;100690.95;1749447;80;27433;-67
2022/07/30 07:40:57;;;;;;;5.17;1.72;;;;;;;20.49;52.12;100685.89;1753740;79;98723;-65
2022/07/30 07:43:24;;;;;;;12.53;2.20;;;;;;;20.59;52.10;100688.20;1756039;79;25779;-65
2022/07/30 07:45:50;;;;;;;6.00;1.40;;;;;;;20.60;51.92;100685.84;1754259;79;98961;-66
2022/07/30 07:48:18;;;;;;;7.55;1.80;;;;;;;20.65;51.90;100685.83;1749492;79;25325;-65
2022/07/30 07:50:44;;;;;;;8.38;1.90;;;;;;;20.63;51.74;100681.00;1756063;79;27389;-66
2022/07/30 07:53:09;;;;;;;3.00;1.67;;;;;;;20.63;51.79;100688.31;1748583;79;27146;-66
2022/07/30 07:55:35;;;;;;;5.67;1.85;;;;;;;20.76;51.79;100678.59;1762603;79;26024;-68
2022/07/30 07:58:01;;;;;;;4.55;1.72;;;;;;;20.88;51.75;100689.28;1725467;81;99464;-65
2022/07/30 08:00:28;;;;;;;4.35;1.50;;;;;;;20.96;51.59;100683.17;1752871;79;25717;-65
2022/07/30 08:02:54;;;;;;;7.25;1.60;;;;;;;20.98;51.56;100683.41;1762404;79;28717;-65
2022/07/30 08:05:19;;;;;;;6.42;1.47;;;;;;;21.00;51.47;100678.69;1754724;79;99032;-65
2022/07/30 08:07:45;;;;;;;5.58;2.12;;;;;;;21.03;51.41;100687.09;1761484;79;25746;-65
2022/07/30 08:10:13;;;;;;;9.10;1.67;;;;;;;21.09;51.40;100682.48;1732581;81;98933;-65
2022/07/30 08:12:39;;;;;;;5.15;1.75;;;;;;;21.12;51.26;100681.34;1754266;79;26244;-66
2022/07/30 08:15:09;;;;;;;7.20;1.90;;;;;;;21.17;51.27;100677.23;1757609;79;29546;-64
2022/07/30 08:17:45;;;;;;;10.98;2.30;;;;;;;21.19;51.26;100675.73;1756465;79;98685;-65
2022/07/30 08:20:15;;;;;;;7.70;2.27;;;;;;;21.25;51.22;100674.73;1753565;79;26247;-67
2022/07/30 08:22:41;;;;;;;8.15;2.10;;;;;;;21.27;51.10;100673.23;1756187;79;26258;-66
2022/07/30 08:25:10;;;;;;;5.20;1.95;;;;;;;21.27;51.10;100673.23;1760851;79;25689;-65
2022/07/30 08:27:36;;;;;;;6.45;2.30;;;;;;;21.30;51.14;100676.55;1759334;79;27884;-66
2022/07/30 08:30:07;;;;;;;5.15;2.20;;;;;;;21.41;50.97;100674.25;1768840;79;98630;-66
2022/07/30 08:32:34;;;;;;;4.33;1.92;;;;;;;21.50;51.07;100672.07;1743151;81;25832;-65
2022/07/30 08:35:02;;;;;;;7.67;2.20;;;;;;;21.57;50.89;100672.39;1775194;80;26018;-64
2022/07/30 08:37:28;;;;;;;5.65;1.95;;;;;;;21.58;50.82;100674.98;1767607;80;25659;-66
2022/07/30 08:39:55;;;;;;;7.40;1.87;;;;;;;21.66;50.79;100685.20;1767466;80;27494;-67
2022/07/30 08:42:21;;;;;;;5.50;2.37;;;;;;;21.69;50.62;100668.06;1768069;79;25824;-65
2022/07/30 08:44:48;;;;;;;4.95;2.35;;;;;;;21.74;50.56;100659.97;1774790;80;26478;-65
2022/07/30 08:47:20;;;;;;;8.23;2.30;;;;;;;21.82;50.55;100667.83;1772071;80;26172;-66
2022/07/30 08:49:48;;;;;;;16.05;2.45;;;;;;;21.96;50.46;100659.77;1772787;79;26066;-65
2022/07/30 08:52:14;;;;;;;8.93;2.33;;;;;;;22.06;50.25;100659.32;1762460;79;27005;-65
2022/07/30 08:54:40;;;;;;;9.15;2.20;;;;;;;22.16;50.13;100657.98;1773490;80;26107;-65
2022/07/30 08:57:08;;;;;;;3.83;2.70;;;;;;;22.13;50.00;100653.66;1767720;79;25823;-65
2022/07/30 08:59:38;;;;;;;6.28;2.60;;;;;;;22.21;49.95;100657.92;1767635;79;25772;-65
2022/07/30 09:02:04;;;;;;;5.90;2.45;;;;;;;22.26;49.84;100652.90;1770456;79;26013;-66
2022/07/30 09:04:29;;;;;;;7.17;2.70;;;;;;;22.31;49.78;100653.34;1770812;79;26872;-65
2022/07/30 09:06:56;;;;;;;3.33;2.35;;;;;;;22.40;49.71;100650.76;1766252;79;99027;-64
2022/07/30 09:09:22;;;;;;;8.20;2.30;;;;;;;22.45;49.61;100649.33;1771872;79;25812;-65
2022/07/30 09:11:48;;;;;;;5.53;2.60;;;;;;;22.51;49.42;100658.31;1770283;79;26500;-66
2022/07/30 09:14:14;;;;;;;6.83;2.83;;;;;;;22.53;49.42;100662.27;1766072;80;25864;-69
2022/07/30 09:16:42;;;;;;;7.10;2.45;;;;;;;22.65;49.46;100652.93;1769951;79;27394;-66
2022/07/30 09:19:18;;;;;;;6.40;2.20;;;;;;;22.82;49.45;100649.50;1772837;79;25925;-66
2022/07/30 09:21:59;;;;;;;2.22;1.80;;;;;;;22.96;49.15;100643.59;1768371;79;26000;-66
2022/07/30 09:24:26;;;;;;;2.22;1.70;;;;;;;22.91;48.95;100650.50;1765696;80;26507;-65
2022/07/30 09:27:03;;;;;;;4.33;2.30;;;;;;;22.92;48.94;100638.56;1766916;80;25781;-65
2022/07/30 09:29:30;;;;;;;6.45;1.62;;;;;;;23.05;48.92;100637.75;1764569;80;27418;-65
2022/07/30 09:32:08;;;;;;;9.15;1.25;;;;;;;23.14;48.51;100638.74;1766329;80;26355;-65
2022/07/30 09:34:37;;;;;;;4.95;1.27;;;;;;;23.11;48.40;100633.56;1761641;80;25852;-65
2022/07/30 09:37:16;;;;;;;12.10;1.50;;;;;;;23.06;48.19;100636.74;1761898;79;26548;-66
2022/07/30 09:39:42;;;;;;;5.80;1.47;;;;;;;23.12;48.21;100632.05;1761348;80;98809;-66
2022/07/30 09:42:22;;;;;;;6.50;1.10;;;;;;;23.24;47.80;100628.14;1768620;79;26870;-65
2022/07/30 09:44:48;;;;;;;4.90;1.02;;;;;;;23.20;47.62;100627.22;1766751;80;25807;-65
2022/07/30 09:47:33;;;;;;;4.25;1.70;;;;;;;23.25;47.59;100633.10;1699055;82;98832;-65
2022/07/30 09:50:09;;;;;;;4.33;1.10;;;;;;;23.34;47.52;100634.08;1767313;79;26249;-66
2022/07/30 09:52:38;;;;;;;6.87;1.15;;;;;;;23.33;47.17;100634.59;1763503;79;99094;-66
2022/07/30 09:55:06;;;;;;;11.55;2.10;;;;;;;23.30;47.17;100632.15;1764197;79;27010;-66
2022/07/30 09:57:33;;;;;;;4.37;1.60;;;;;;;23.34;47.14;100629.48;1764232;80;25742;-66
2022/07/30 10:00:20;;;;;;;2.75;1.32;;;;;;;23.42;46.99;100621.35;1760171;80;25832;-65
2022/07/30 10:02:46;;;;;;;5.35;1.22;;;;;;;23.38;46.84;100625.43;1765527;80;26110;-65
2022/07/30 10:05:16;;;;;;;8.55;0.75;;;;;;;23.30;46.46;100622.58;1771497;80;25780;-66
2022/07/30 10:07:58;;;;;;;2.85;0.98;;;;;;;23.23;46.39;100633.25;1762323;80;27478;-66
2022/07/30 10:10:30;;;;;;;10.38;1.75;;;;;;;23.23;46.42;100626.92;1763945;80;25787;-65
2022/07/30 10:13:02;;;;;;;3.70;1.20;;;;;;;23.24;46.41;100625.40;1756764;80;26110;-67
2022/07/30 10:15:34;;;;;;;6.80;1.80;;;;;;;23.28;46.37;100630.93;1771260;80;26552;-67
2022/07/30 10:18:03;;;;;;;7.85;1.80;;;;;;;23.31;46.32;100626.53;1769053;80;25954;-67
2022/07/30 10:20:29;;;;;;;5.10;1.40;;;;;;;23.31;46.36;100627.03;1761334;80;28246;-67
2022/07/30 10:22:55;;;;;;;3.87;1.87;;;;;;;23.39;46.29;100635.36;1762745;80;25990;-67
2022/07/30 10:25:24;;;;;;;4.03;1.70;;;;;;;23.40;46.25;100634.86;1764401;80;98677;-67
2022/07/30 10:27:51;;;;;;;11.03;1.60;;;;;;;23.48;46.33;100630.33;1765528;80;26582;-66
2022/07/30 10:30:18;;;;;;;8.03;1.50;;;;;;;23.59;46.29;100632.91;1767786;80;98883;-66
2022/07/30 10:32:45;;;;;;;5.20;1.35;;;;;;;23.69;46.22;100628.77;1764405;80;28096;-66
2022/07/30 10:35:14;;;;;;;3.80;2.00;;;;;;;23.64;46.03;100631.95;1729109;81;25967;-66
2022/07/30 10:37:47;;;;;;;4.60;1.12;;;;;;;23.66;45.99;100630.94;1743804;79;25807;-66
2022/07/30 10:40:24;;;;;;;3.67;1.30;;;;;;;23.69;45.98;100633.37;1751298;79;26333;-66
2022/07/30 10:43:35;;;;;;;5.25;1.50;;;;;;;23.73;45.91;100633.42;1752392;79;25686;-66
2022/07/30 10:46:48;;;;;;;5.08;1.60;;;;;;;23.77;45.77;100632.11;1755351;79;29542;-66
2022/07/30 10:49:15;;;;;;;4.67;1.37;;;;;;;23.76;45.73;100630.39;1755870;80;27113;-65
2022/07/30 10:51:48;;;;;;;2.00;0.98;;;;;;;23.78;45.63;100626.98;1762853;79;25813;-66
2022/07/30 10:54:35;;;;;;;15.50;1.20;;;;;;;23.82;45.61;100636.12;1736035;81;26401;-65
2022/07/30 10:57:15;;;;;;;11.90;0.93;;;;;;;23.83;45.52;100631.00;1740513;79;26361;-67
2022/07/30 11:00:02;;;;;;;4.05;1.00;;;;;;;23.72;45.38;100632.56;1725187;81;27470;-65
2022/07/30 11:02:30;;;;;;;7.25;0.95;;;;;;;23.70;45.46;100632.36;1724846;81;25975;-65
2022/07/30 11:05:21;;;;;;;2.52;0.75;;;;;;;23.62;45.39;100628.50;1727672;81;25824;-66
2022/07/30 11:07:47;;;;;;;6.50;1.30;;;;;;;23.48;45.29;100630.84;1753602;79;98969;-65
2022/07/30 11:10:37;;;;;;;7.30;0.80;;;;;;;23.38;45.36;100629.53;1733050;81;25773;-66
2022/07/30 11:13:07;;;;;;;6.55;1.17;;;;;;;23.31;45.30;100624.30;1726616;81;28311;-65
2022/07/30 11:15:55;;;;;;;4.03;1.22;;;;;;;23.22;45.28;100625.19;1758542;79;98756;-66
2022/07/30 11:18:23;;;;;;;4.28;1.20;;;;;;;23.12;45.34;100622.48;1728169;80;25736;-66
2022/07/30 11:21:16;;;;;;;5.85;1.32;;;;;;;23.03;45.34;100623.87;1760379;79;25918;-65
2022/07/30 11:23:45;;;;;;;5.65;1.15;;;;;;;22.99;45.40;100626.90;1733410;81;25770;-65
2022/07/30 11:26:33;;;;;;;2.52;0.82;;;;;;;22.95;45.46;100625.47;1758794;79;28119;-65
2022/07/30 11:28:59;;;;;;;11.00;1.10;;;;;;;22.93;45.56;100619.79;1758659;79;26537;-66
2022/07/30 11:31:33;;;;;;;6.28;1.20;;;;;;;22.97;45.56;100620.72;1760399;80;26480;-66
2022/07/30 11:34:24;;;;;;;4.62;0.95;;;;;;;22.98;45.59;100623.81;1726573;81;98815;-66
2022/07/30 11:37:17;;;;;;;3.87;1.00;;;;;;;22.97;45.56;100613.88;1755826;79;26158;-65